Atwell, West Virginia
Current Conditions -  °F | °C
As of 4:15 AM on Friday 19 Dec 2014 (Local Time) from KJFZ Reporting Station
Overcast Overcast  
Wind Chill: -1°   Ceiling: 4800
Heat Index: -1°   Visibility: 10mi
Dew Point: -5°   Wind: 3mph
Humidity: 76%   Direction: 300°WNW
Pressure: 30.1"   Gusts: NA
Location:  37.3433°N, 81.7826°W
Report Text: KJFZ 190915Z AUTO 30003KT 10SM OVC048 M01/M05 A3010 RMK AO2 T10131050
Loading
Personal Weather Stations






























Interactive Weather Map New forecast layout! Learn more

10-Day Weather Forecast

Advertisements
Track Severe Weather on mobile